Time;durP1;ratioP1;P1;durP2;ratioP2;P2;SDS_P1;SDS_P2;PMS_P1;PMS_P2;Temp;Humidity;BMP_temperature;BMP_pressure;BME280_temperature;BME280_humidity;BME280_pressure;Samples;Min_cycle;Max_cycle;Signal;HPM_P1;HPM_P2
2023/01/17 00:02:07;;;;;;;2.70;1.50;;;;;;;7.37;58.08;96326.75;5133916;27;20027;-46
2023/01/17 00:10:12;;;;;;;3.22;1.20;;;;;;;7.34;58.32;96303.75;5134086;27;20130;-46
2023/01/17 00:12:38;;;;;;;3.92;1.33;;;;;;;7.32;58.03;96305.03;5132534;27;20079;-46
2023/01/17 00:15:05;;;;;;;5.70;1.30;;;;;;;7.34;57.77;96297.75;5133673;27;20019;-46
2023/01/17 00:17:31;;;;;;;1.83;1.10;;;;;;;7.38;57.82;96288.41;5133909;27;20399;-46
2023/01/17 00:26:03;;;;;;;5.43;1.25;;;;;;;7.60;57.82;96275.41;5132877;27;20030;-46
2023/01/17 01:35:47;;;;;;;4.20;1.30;;;;;;;7.80;57.07;96154.78;5132964;27;20035;-46
2023/01/17 01:38:13;;;;;;;2.72;1.40;;;;;;;7.87;56.82;96151.97;5148726;27;20015;-46
2023/01/17 01:40:51;;;;;;;4.63;1.30;;;;;;;7.85;56.90;96148.81;5131194;28;20556;-46
2023/01/17 01:43:19;;;;;;;6.30;1.60;;;;;;;7.91;57.24;96145.25;5131255;28;20499;-47
2023/01/17 01:45:57;;;;;;;5.32;1.45;;;;;;;8.02;56.77;96133.06;5131122;28;20023;-46
2023/01/17 01:48:32;;;;;;;3.60;1.35;;;;;;;8.11;56.61;96131.59;5132594;27;20076;-46
2023/01/17 01:50:58;;;;;;;3.55;1.10;;;;;;;8.12;55.88;96141.00;5136296;27;20034;-46
2023/01/17 01:53:25;;;;;;;6.13;1.90;;;;;;;8.04;55.98;96134.41;5136538;27;20058;-47
2023/01/17 01:55:51;;;;;;;4.80;1.40;;;;;;;7.99;56.05;96129.16;5135105;27;20027;-46
2023/01/17 01:58:25;;;;;;;6.70;1.75;;;;;;;8.05;56.55;96125.53;5135019;27;20023;-47
2023/01/17 02:00:50;;;;;;;5.80;1.30;;;;;;;8.23;56.30;96113.94;5136362;27;20492;-46
2023/01/17 02:03:22;;;;;;;8.25;1.60;;;;;;;8.25;56.22;96119.72;5136270;27;20026;-46
2023/01/17 02:05:48;;;;;;;3.45;1.30;;;;;;;8.34;55.73;96114.81;5134952;27;20027;-46
2023/01/17 02:08:16;;;;;;;4.32;1.48;;;;;;;8.25;55.27;96105.84;5134877;27;20027;-46
2023/01/17 02:10:46;;;;;;;3.47;1.38;;;;;;;8.18;56.11;96101.59;5134680;27;20027;-47
2023/01/17 02:13:15;;;;;;;4.78;2.15;;;;;;;8.16;56.06;96103.69;5136356;27;20015;-46
2023/01/17 02:16:01;;;;;;;7.10;2.05;;;;;;;8.15;56.16;96090.91;5134674;27;20400;-46
2023/01/17 02:18:45;;;;;;;3.92;1.83;;;;;;;8.10;55.49;96078.56;5136074;27;20023;-46
2023/01/17 02:21:26;;;;;;;5.55;2.00;;;;;;;8.04;56.20;96065.72;5134722;27;20454;-47
2023/01/17 02:24:20;;;;;;;2.63;1.52;;;;;;;8.08;56.49;96067.56;5134372;27;20051;-46
2023/01/17 02:27:19;;;;;;;3.53;1.60;;;;;;;8.10;56.49;96059.50;5134481;27;20018;-46
2023/01/17 02:30:09;;;;;;;3.00;1.40;;;;;;;8.16;56.37;96048.81;5135827;27;20110;-46
2023/01/17 02:32:49;;;;;;;4.95;2.72;;;;;;;8.23;56.25;96053.03;5134320;27;20028;-46
2023/01/17 02:35:22;;;;;;;4.30;1.20;;;;;;;8.15;56.16;96041.25;5134394;27;20038;-46
2023/01/17 02:37:56;;;;;;;8.27;2.30;;;;;;;7.99;56.37;96035.91;5135676;27;20163;-46
2023/01/17 02:40:52;;;;;;;9.50;1.90;;;;;;;7.99;57.27;96038.50;5135625;27;20420;-46
2023/01/17 02:43:22;;;;;;;4.10;1.10;;;;;;;8.06;56.46;96035.69;5134266;27;20027;-46
2023/01/17 02:45:47;;;;;;;3.33;1.45;;;;;;;8.09;56.67;96027.38;5134090;27;20435;-46
2023/01/17 02:48:17;;;;;;;3.53;1.58;;;;;;;8.05;57.13;96021.06;5135456;27;20019;-46
2023/01/17 02:50:58;;;;;;;3.63;1.45;;;;;;;8.03;56.72;96007.47;5135619;27;20023;-46
2023/01/17 02:53:49;;;;;;;6.65;2.42;;;;;;;7.95;57.03;95997.50;5135407;27;20496;-47
2023/01/17 02:57:00;;;;;;;5.82;2.38;;;;;;;7.89;58.08;95978.38;5134061;27;20031;-46
2023/01/17 02:59:51;;;;;;;2.60;1.45;;;;;;;7.88;58.40;95955.13;5105433;27;20070;-46
2023/01/17 03:02:35;;;;;;;4.57;1.63;;;;;;;7.84;58.11;95951.44;5135136;27;20035;-46
2023/01/17 03:05:11;;;;;;;4.25;1.55;;;;;;;7.84;57.94;95949.59;5135153;27;20049;-46
2023/01/17 03:07:38;;;;;;;3.20;1.30;;;;;;;7.98;58.05;95936.91;5135127;27;20039;-46
2023/01/17 03:10:05;;;;;;;4.15;1.52;;;;;;;8.08;57.81;95933.56;5135282;27;20015;-46
2023/01/17 03:12:36;;;;;;;6.70;1.50;;;;;;;8.26;57.63;95927.16;5133741;27;20106;-46
2023/01/17 03:15:01;;;;;;;3.53;1.98;;;;;;;8.36;57.02;95927.19;5134979;27;20029;-46
2023/01/17 03:17:31;;;;;;;3.03;1.63;;;;;;;8.30;57.01;95931.59;5134917;27;20117;-46
2023/01/17 03:19:57;;;;;;;5.18;1.80;;;;;;;8.31;57.06;95925.34;5133522;27;20106;-46
2023/01/17 03:22:23;;;;;;;3.10;1.63;;;;;;;8.33;57.04;95922.47;5134498;27;20484;-46
2023/01/17 03:24:49;;;;;;;4.57;1.60;;;;;;;8.31;57.25;95917.53;5133610;27;20102;-46
2023/01/17 03:27:15;;;;;;;2.50;1.55;;;;;;;8.29;56.87;95914.38;5134736;27;20107;-46
2023/01/17 03:29:40;;;;;;;3.55;1.42;;;;;;;8.27;57.31;95913.84;5134839;27;20019;-46
2023/01/17 03:32:06;;;;;;;8.50;2.03;;;;;;;8.24;57.53;95900.50;5134495;27;20538;-46
2023/01/17 03:34:32;;;;;;;7.70;2.08;;;;;;;8.17;57.39;95911.97;5134573;27;20015;-46
2023/01/17 03:36:57;;;;;;;5.90;1.30;;;;;;;8.05;57.88;95911.38;5134469;27;20027;-46
2023/01/17 03:39:23;;;;;;;5.05;1.58;;;;;;;8.09;57.61;95922.88;5134525;27;20026;-46
2023/01/17 03:41:49;;;;;;;5.20;1.50;;;;;;;8.00;57.66;95914.72;5167825;27;20396;-46
2023/01/17 03:44:14;;;;;;;3.35;1.70;;;;;;;7.81;57.78;95897.91;5134411;27;20021;-46
2023/01/17 03:46:40;;;;;;;6.32;1.60;;;;;;;7.68;58.03;95908.75;5132976;27;20080;-46
2023/01/17 03:49:06;;;;;;;3.95;1.90;;;;;;;7.63;59.49;95903.53;5132963;27;20022;-46
2023/01/17 03:51:31;;;;;;;5.13;1.90;;;;;;;7.71;59.18;95898.63;5134053;27;20224;-46
2023/01/17 03:53:57;;;;;;;4.18;2.25;;;;;;;7.78;58.87;95893.16;5132801;27;20435;-46
2023/01/17 03:56:23;;;;;;;6.88;1.90;;;;;;;7.84;58.96;95873.88;5134120;27;20023;-46
2023/01/17 03:58:48;;;;;;;5.55;1.70;;;;;;;7.90;58.30;95877.31;5132716;27;20388;-46
2023/01/17 04:01:14;;;;;;;3.13;1.65;;;;;;;7.97;58.48;95877.91;5133988;27;20038;-47
2023/01/17 04:03:40;;;;;;;4.72;1.95;;;;;;;7.98;59.03;95861.16;5133953;27;20047;-46
2023/01/17 04:06:06;;;;;;;4.30;2.08;;;;;;;8.19;60.11;95849.00;5132566;27;20070;-46
2023/01/17 04:08:32;;;;;;;4.13;1.70;;;;;;;8.55;57.73;95847.34;5132548;27;20059;-46
2023/01/17 04:10:57;;;;;;;4.28;1.88;;;;;;;8.65;56.83;95843.94;5133640;27;20026;-46
2023/01/17 04:13:23;;;;;;;3.65;1.48;;;;;;;8.67;57.65;95834.03;5131822;27;20019;-46
2023/01/17 04:15:50;;;;;;;10.63;1.77;;;;;;;8.73;58.46;95838.25;5133701;27;20042;-46
2023/01/17 04:18:18;;;;;;;6.10;2.00;;;;;;;9.01;57.51;95820.47;5133740;27;20035;-46
2023/01/17 04:20:43;;;;;;;2.55;1.30;;;;;;;9.10;55.88;95820.75;5133625;27;20030;-47
2023/01/17 04:23:09;;;;;;;6.22;1.88;;;;;;;9.06;56.23;95817.09;5133393;27;20386;-47
2023/01/17 04:25:35;;;;;;;6.40;2.03;;;;;;;8.95;56.12;95811.06;5133580;27;20071;-46
2023/01/17 04:28:03;;;;;;;11.05;2.45;;;;;;;8.86;56.40;95802.94;5133596;27;20445;-46
2023/01/17 04:30:29;;;;;;;4.57;1.50;;;;;;;8.91;56.44;95802.94;5133388;27;20072;-46
2023/01/17 04:32:55;;;;;;;5.82;1.65;;;;;;;8.77;56.27;95791.41;5132122;27;20020;-46
2023/01/17 04:35:21;;;;;;;5.88;2.33;;;;;;;8.73;58.03;95782.53;5133371;27;20019;-46
2023/01/17 04:37:47;;;;;;;7.05;1.65;;;;;;;8.77;57.31;95775.72;5133317;27;20083;-46
2023/01/17 04:40:13;;;;;;;4.30;1.70;;;;;;;8.73;57.16;95765.03;5131955;27;20120;-46
2023/01/17 04:42:39;;;;;;;5.38;1.77;;;;;;;8.84;56.12;95771.03;5131921;27;20446;-46
2023/01/17 04:45:06;;;;;;;4.25;1.83;;;;;;;8.78;56.06;95772.09;5133200;27;20553;-46
2023/01/17 04:47:34;;;;;;;4.85;2.08;;;;;;;8.46;57.45;95769.69;5133449;27;20551;-46
2023/01/17 04:50:00;;;;;;;7.60;2.08;;;;;;;8.27;59.17;95767.53;5133133;27;20111;-47
2023/01/17 04:52:26;;;;;;;3.67;1.70;;;;;;;8.14;58.90;95783.69;5133014;27;20552;-47
2023/01/17 04:54:51;;;;;;;4.55;1.60;;;;;;;8.10;58.98;95778.16;5133006;27;20034;-46
2023/01/17 04:57:18;;;;;;;4.90;1.77;;;;;;;8.08;58.73;95784.69;5131630;27;20030;-46
2023/01/17 04:59:45;;;;;;;4.40;1.73;;;;;;;7.95;59.15;95785.97;5132958;27;20047;-46
2023/01/17 05:02:11;;;;;;;4.68;1.95;;;;;;;7.99;59.80;95777.34;5132999;27;20444;-46
2023/01/17 05:04:37;;;;;;;3.63;1.65;;;;;;;8.13;58.92;95782.91;5132938;27;20030;-46
2023/01/17 05:07:03;;;;;;;4.78;1.70;;;;;;;8.09;60.94;95784.44;5132934;27;20373;-46
2023/01/17 05:09:28;;;;;;;7.30;1.80;;;;;;;8.07;62.71;95783.91;5131583;27;20027;-46
2023/01/17 05:11:57;;;;;;;6.93;4.57;;;;;;;8.02;64.24;95786.50;5131389;27;20022;-46
2023/01/17 05:14:25;;;;;;;5.10;2.30;;;;;;;7.90;63.59;95783.31;5131524;27;20482;-47
2023/01/17 05:16:56;;;;;;;10.77;2.60;;;;;;;7.70;65.76;95784.00;5132783;27;20022;-46
2023/01/17 05:19:25;;;;;;;2.75;2.13;;;;;;;7.62;67.25;95781.88;5132780;27;20031;-46
2023/01/17 05:21:52;;;;;;;5.63;2.72;;;;;;;7.57;69.41;95777.41;5132745;27;20031;-46
2023/01/17 05:24:18;;;;;;;14.27;2.75;;;;;;;7.54;69.54;95780.53;5135501;27;20043;-47
2023/01/17 05:26:44;;;;;;;5.00;2.08;;;;;;;7.44;70.66;95770.81;5137058;27;20446;-47
2023/01/17 05:29:11;;;;;;;6.90;2.03;;;;;;;7.30;70.19;95769.69;5137005;27;20071;-46
2023/01/17 05:31:37;;;;;;;7.20;3.50;;;;;;;7.05;72.13;95773.69;5136795;27;20023;-45
2023/01/17 05:34:03;;;;;;;9.65;1.92;;;;;;;6.79;73.68;95764.88;5136914;27;20019;-45
2023/01/17 05:36:28;;;;;;;4.80;1.77;;;;;;;6.60;75.50;95767.84;5136786;27;20030;-44
2023/01/17 05:38:54;;;;;;;6.53;2.58;;;;;;;6.37;76.79;95762.94;5135480;27;20160;-44
2023/01/17 05:41:20;;;;;;;7.10;2.75;;;;;;;6.25;78.45;95765.66;5135425;27;20515;-45
2023/01/17 05:43:45;;;;;;;9.45;2.70;;;;;;;6.12;79.92;95766.84;5136611;27;20026;-45
2023/01/17 05:46:11;;;;;;;5.15;2.38;;;;;;;6.03;80.73;95757.88;5136632;27;20076;-44
2023/01/17 05:48:37;;;;;;;3.42;2.10;;;;;;;5.86;81.46;95763.13;5136625;27;20416;-44
2023/01/17 05:51:02;;;;;;;3.00;1.92;;;;;;;5.75;82.48;95762.22;5136771;27;20019;-44
2023/01/17 05:53:28;;;;;;;7.03;1.92;;;;;;;5.77;83.07;95760.16;5136445;27;20102;-44
2023/01/17 05:55:54;;;;;;;9.65;4.25;;;;;;;5.64;83.54;95765.72;5136459;27;20023;-44
2023/01/17 05:58:21;;;;;;;4.45;2.70;;;;;;;5.50;83.69;95765.28;5135110;27;20019;-44
2023/01/17 06:00:47;;;;;;;4.13;2.00;;;;;;;5.42;84.12;95770.13;5136308;27;20042;-44
2023/01/17 06:03:13;;;;;;;7.57;2.78;;;;;;;5.36;84.23;95761.44;5136266;27;20015;-44
2023/01/17 06:05:39;;;;;;;9.52;2.58;;;;;;;5.36;84.14;95766.66;5136222;27;20031;-44
2023/01/17 06:08:05;;;;;;;11.25;3.03;;;;;;;5.33;85.93;95765.31;5136232;27;20553;-44
2023/01/17 06:10:31;;;;;;;6.15;2.72;;;;;;;5.48;86.16;95766.56;5135023;27;20035;-44
2023/01/17 06:13:06;;;;;;;7.70;2.60;;;;;;;5.61;87.16;95763.59;5136127;27;20015;-44
2023/01/17 06:15:34;;;;;;;4.55;2.35;;;;;;;5.62;86.47;95759.97;5134754;27;20118;-44
2023/01/17 06:18:05;;;;;;;8.75;3.38;;;;;;;5.62;87.30;95754.78;5136062;27;20061;-44
2023/01/17 06:20:32;;;;;;;5.72;2.80;;;;;;;5.51;87.66;95750.47;5135949;27;20501;-44
2023/01/17 06:23:05;;;;;;;5.97;2.70;;;;;;;5.33;89.64;95748.91;5135687;27;20421;-44
2023/01/17 06:25:44;;;;;;;17.38;3.78;;;;;;;5.10;90.43;95752.50;5134854;27;20114;-44
2023/01/17 06:28:15;;;;;;;6.97;2.95;;;;;;;4.95;91.79;95753.84;5134552;27;20055;-44
2023/01/17 06:30:42;;;;;;;4.05;1.85;;;;;;;5.14;92.24;95745.81;5135701;27;20031;-44
2023/01/17 06:33:09;;;;;;;9.18;3.75;;;;;;;5.04;91.39;95745.66;5135660;27;20027;-44
2023/01/17 06:35:37;;;;;;;5.28;2.40;;;;;;;4.94;90.76;95760.06;5133959;27;20023;-44
2023/01/17 06:38:03;;;;;;;5.82;2.65;;;;;;;4.87;90.74;95756.03;5135646;27;20064;-44
2023/01/17 06:40:29;;;;;;;6.25;2.47;;;;;;;4.91;91.96;95757.94;5134481;27;20023;-43
2023/01/17 06:43:02;;;;;;;13.88;9.68;;;;;;;4.91;90.97;95757.94;5135568;27;20023;-44
2023/01/17 06:45:30;;;;;;;7.55;3.83;;;;;;;4.90;90.59;95761.56;5135408;27;20098;-43
2023/01/17 06:47:58;;;;;;;4.00;2.67;;;;;;;4.86;90.69;95757.84;5135422;27;20079;-43
2023/01/17 06:50:24;;;;;;;8.93;3.47;;;;;;;4.85;90.49;95751.09;5135303;27;20054;-43
2023/01/17 06:52:58;;;;;;;10.07;3.75;;;;;;;5.04;92.54;95740.47;5134367;27;20034;-44
2023/01/17 06:55:27;;;;;;;17.98;4.18;;;;;;;5.08;92.97;95744.94;5135555;27;20027;-43
2023/01/17 06:57:54;;;;;;;7.00;3.55;;;;;;;5.00;93.69;95724.53;5135206;27;20038;-43
2023/01/17 07:00:20;;;;;;;7.30;4.05;;;;;;;4.99;94.90;95725.59;5135236;27;20072;-43
2023/01/17 07:02:50;;;;;;;6.90;3.58;;;;;;;4.89;94.02;95721.03;5135147;27;20027;-44
2023/01/17 07:05:16;;;;;;;7.05;3.45;;;;;;;4.76;95.02;95716.13;5135130;27;20019;-44
2023/01/17 07:07:42;;;;;;;7.75;3.38;;;;;;;4.82;96.02;95711.81;5135333;27;20026;-43
2023/01/17 07:10:09;;;;;;;6.57;2.95;;;;;;;4.95;96.79;95711.47;5135054;27;20030;-44
2023/01/17 07:12:35;;;;;;;7.55;3.35;;;;;;;5.20;97.99;95698.06;5134881;27;20027;-44
2023/01/17 07:15:00;;;;;;;10.73;3.90;;;;;;;5.37;98.71;95701.41;5134909;27;20011;-44
2023/01/17 07:17:26;;;;;;;13.95;4.28;;;;;;;5.54;97.88;95713.56;5134846;27;20020;-44
2023/01/17 07:19:52;;;;;;;9.15;3.50;;;;;;;5.75;96.99;95710.16;5135138;27;20485;-44
2023/01/17 07:22:18;;;;;;;4.20;2.72;;;;;;;5.87;96.07;95710.03;5133209;27;20039;-45
2023/01/17 07:24:43;;;;;;;9.45;4.00;;;;;;;5.85;94.55;95714.69;5134796;27;20023;-45
2023/01/17 07:27:09;;;;;;;9.57;3.80;;;;;;;5.97;95.00;95706.78;5134747;27;20015;-45
2023/01/17 07:29:34;;;;;;;8.45;4.57;;;;;;;6.04;94.85;95706.59;5133300;27;20034;-45
2023/01/17 07:32:02;;;;;;;11.10;4.35;;;;;;;6.02;93.36;95691.25;5133193;27;20028;-45
2023/01/17 07:34:28;;;;;;;18.45;5.57;;;;;;;6.09;93.32;95691.81;5134825;27;20054;-45
2023/01/17 07:36:53;;;;;;;8.82;4.80;;;;;;;6.26;93.05;95693.53;5134493;27;20042;-45
2023/01/17 07:39:20;;;;;;;12.88;4.35;;;;;;;6.28;90.42;95688.88;5134487;27;20484;-45
2023/01/17 07:41:46;;;;;;;19.30;7.65;;;;;;;6.34;91.19;95690.50;5134411;27;20046;-45
2023/01/17 07:44:12;;;;;;;13.90;6.53;;;;;;;6.42;90.74;95681.44;5115909;27;20023;-45
2023/01/17 07:46:39;;;;;;;12.10;6.13;;;;;;;6.35;89.86;95692.06;5131924;27;20023;-45
2023/01/17 07:49:04;;;;;;;10.70;4.88;;;;;;;6.18;88.91;95681.78;5132958;27;20027;-45
2023/01/17 07:51:30;;;;;;;15.13;4.63;;;;;;;6.09;88.83;95694.41;5132799;27;20067;-45
2023/01/17 07:53:56;;;;;;;28.50;7.25;;;;;;;6.09;89.01;95691.81;5132849;27;20031;-45
2023/01/17 07:56:22;;;;;;;76.68;11.45;;;;;;;6.23;89.58;95691.44;5134109;27;20019;-45
2023/01/17 07:58:47;;;;;;;56.92;9.80;;;;;;;6.38;89.09;95696.78;5132864;27;20034;-45
2023/01/17 08:01:15;;;;;;;44.53;8.77;;;;;;;6.51;89.17;95677.34;5132704;27;20031;-45
2023/01/17 08:03:41;;;;;;;38.60;8.00;;;;;;;6.68;87.07;95678.03;5132678;27;20023;-46
2023/01/17 08:06:17;;;;;;;22.27;6.32;;;;;;;6.80;86.77;95675.22;5133916;27;20026;-45
2023/01/17 08:08:43;;;;;;;20.35;8.15;;;;;;;6.88;85.99;95666.94;5133934;27;20027;-45
2023/01/17 08:11:08;;;;;;;25.00;8.98;;;;;;;6.92;84.64;95652.38;5133767;27;20023;-45
2023/01/17 08:13:34;;;;;;;17.50;6.47;;;;;;;6.97;83.26;95644.56;5133786;27;20438;-45
2023/01/17 08:16:02;;;;;;;19.02;6.30;;;;;;;7.08;83.36;95637.56;5133763;27;20079;-45
2023/01/17 08:18:28;;;;;;;9.38;4.25;;;;;;;7.43;83.88;95644.00;5133591;27;20039;-45
2023/01/17 08:20:54;;;;;;;18.92;4.65;;;;;;;7.72;83.06;95646.97;5132334;27;20034;-45
2023/01/17 08:23:20;;;;;;;6.50;3.10;;;;;;;8.07;82.90;95639.47;5166735;27;20504;-45
2023/01/17 08:25:46;;;;;;;11.13;3.47;;;;;;;8.17;78.62;95649.97;5133554;27;20019;-45
2023/01/17 08:28:11;;;;;;;3.05;1.40;;;;;;;8.20;77.86;95644.97;5132212;27;20087;-45
2023/01/17 08:30:37;;;;;;;5.15;2.65;;;;;;;8.14;79.25;95647.84;5132153;27;20076;-45
2023/01/17 08:33:03;;;;;;;4.70;1.25;;;;;;;8.11;78.30;95654.38;5133513;27;20446;-45
2023/01/17 08:35:29;;;;;;;3.53;1.30;;;;;;;7.88;79.12;95647.03;5132006;27;20026;-45
2023/01/17 08:37:56;;;;;;;4.68;1.80;;;;;;;7.77;80.39;95636.56;5132042;27;20027;-45
2023/01/17 08:40:22;;;;;;;5.90;2.03;;;;;;;7.66;79.78;95626.34;5133311;27;20107;-46
2023/01/17 08:42:56;;;;;;;5.78;1.88;;;;;;;7.66;80.68;95621.13;5133285;27;20031;-45
2023/01/17 08:45:21;;;;;;;5.78;1.10;;;;;;;7.54;78.86;95614.28;5133213;27;20022;-46
2023/01/17 08:47:47;;;;;;;1.42;0.70;;;;;;;7.39;78.72;95609.81;5114876;27;20031;-46
2023/01/17 08:50:13;;;;;;;2.30;0.93;;;;;;;7.34;79.93;95609.78;5131805;27;20361;-46
2023/01/17 08:52:38;;;;;;;4.75;1.02;;;;;;;7.43;80.53;95606.72;5133041;27;20118;-46
2023/01/17 08:55:04;;;;;;;1.85;0.90;;;;;;;7.38;79.17;95595.22;5133101;27;20043;-46
2023/01/17 08:57:31;;;;;;;7.35;1.50;;;;;;;7.40;80.81;95582.69;5133157;27;20119;-46
2023/01/17 08:59:57;;;;;;;5.53;1.92;;;;;;;7.46;79.29;95575.66;5132842;27;20019;-46
2023/01/17 09:02:23;;;;;;;1.42;0.90;;;;;;;7.50;77.70;95576.69;5133031;27;20484;-46
2023/01/17 09:04:49;;;;;;;1.52;1.27;;;;;;;7.40;77.65;95556.63;5131654;27;20028;-46
2023/01/17 09:07:17;;;;;;;1.35;0.70;;;;;;;7.38;78.57;95557.88;5132817;27;20031;-46
2023/01/17 09:09:43;;;;;;;2.80;0.65;;;;;;;7.36;77.93;95545.13;5131630;27;20027;-46
2023/01/17 09:12:09;;;;;;;1.60;0.90;;;;;;;7.28;78.18;95579.50;5131502;27;20034;-46
2023/01/17 09:14:36;;;;;;;1.45;0.60;;;;;;;7.30;77.83;95568.81;5131581;27;20507;-46
2023/01/17 09:17:02;;;;;;;19.40;1.95;;;;;;;7.36;79.47;95566.00;5132808;27;20024;-46
2023/01/17 09:19:28;;;;;;;6.70;3.10;;;;;;;7.52;79.62;95556.34;5132939;27;20047;-46
2023/01/17 09:21:54;;;;;;;5.82;2.80;;;;;;;7.66;79.30;95554.03;5166051;27;20059;-46
2023/01/17 09:24:19;;;;;;;4.32;3.58;;;;;;;7.70;77.88;95539.44;5114144;28;20079;-46
2023/01/17 09:26:45;;;;;;;3.72;1.92;;;;;;;7.80;78.55;95544.66;5131405;28;20023;-46
2023/01/17 09:29:12;;;;;;;4.18;2.72;;;;;;;7.77;77.71;95555.63;5132706;27;20389;-46
2023/01/17 09:31:40;;;;;;;1.95;1.20;;;;;;;7.73;75.97;95546.75;5132607;27;20041;-47
2023/01/17 09:34:06;;;;;;;2.85;1.23;;;;;;;7.64;76.27;95558.72;5132933;27;20023;-46
2023/01/17 09:36:32;;;;;;;3.08;1.25;;;;;;;7.67;76.47;95571.28;5132561;28;20016;-46
2023/01/17 09:38:59;;;;;;;1.30;0.90;;;;;;;7.75;75.46;95551.72;5132527;27;20027;-46
2023/01/17 09:41:30;;;;;;;3.00;1.17;;;;;;;7.73;75.76;95548.59;5131230;28;20034;-46
2023/01/17 09:44:17;;;;;;;2.78;0.95;;;;;;;7.87;76.26;95570.53;5131238;28;20031;-46
2023/01/17 09:46:47;;;;;;;2.20;1.17;;;;;;;7.82;74.96;95606.28;5132577;28;20050;-46
2023/01/17 09:49:43;;;;;;;3.95;1.05;;;;;;;7.75;75.94;95581.22;5132528;27;20031;-47
2023/01/17 09:52:15;;;;;;;1.27;0.70;;;;;;;7.70;76.52;95596.84;5132089;28;20039;-46
2023/01/17 09:54:44;;;;;;;0.50;0.40;;;;;;;7.71;74.51;95584.59;5132562;27;20039;-46
2023/01/17 09:57:35;;;;;;;1.15;0.82;;;;;;;7.68;75.81;95582.50;5131115;28;20114;-46
2023/01/17 10:00:19;;;;;;;0.73;0.70;;;;;;;7.80;75.71;95564.75;5132436;27;20027;-46
2023/01/17 10:02:52;;;;;;;2.38;1.20;;;;;;;7.93;74.88;95566.88;5132414;28;20039;-46
2023/01/17 10:05:30;;;;;;;2.90;1.35;;;;;;;8.12;75.96;95574.19;5131092;28;20073;-46
2023/01/17 10:08:18;;;;;;;2.42;1.25;;;;;;;8.29;73.51;95573.91;5132363;27;20019;-46
2023/01/17 10:11:02;;;;;;;4.03;1.30;;;;;;;8.22;71.80;95558.50;5132902;27;20035;-46
2023/01/17 10:13:58;;;;;;;0.63;0.50;;;;;;;8.64;72.12;95577.59;5136122;27;20027;-46
2023/01/17 10:16:49;;;;;;;2.63;0.88;;;;;;;8.93;71.12;95570.72;5134799;27;20027;-46
2023/01/17 10:19:14;;;;;;;2.58;1.23;;;;;;;9.06;70.01;95599.97;5136095;27;20080;-46
2023/01/17 10:22:09;;;;;;;4.97;1.25;;;;;;;9.75;72.46;95616.69;5136019;27;20544;-46
2023/01/17 10:24:57;;;;;;;1.13;0.88;;;;;;;11.21;64.85;95559.06;5093596;28;20131;-46
2023/01/17 10:27:25;;;;;;;3.03;1.10;;;;;;;11.94;64.38;95586.75;5094994;28;20034;-46
2023/01/17 10:29:50;;;;;;;1.48;0.70;;;;;;;11.94;59.83;95593.88;5093605;28;20032;-46
2023/01/17 10:32:21;;;;;;;1.15;0.82;;;;;;;11.78;62.65;95590.63;5094758;28;20016;-47
2023/01/17 10:34:50;;;;;;;2.75;0.70;;;;;;;12.08;60.04;95609.69;5094868;28;20064;-47
2023/01/17 10:37:31;;;;;;;1.30;0.70;;;;;;;11.79;59.56;95600.06;5094795;28;20405;-46
2023/01/17 10:40:12;;;;;;;4.43;1.45;;;;;;;12.30;61.50;95619.63;5094843;28;20054;-47
2023/01/17 10:42:49;;;;;;;3.58;1.02;;;;;;;12.84;57.43;95614.78;5093452;28;20020;-47
2023/01/17 10:45:27;;;;;;;1.83;0.80;;;;;;;13.01;58.44;95616.88;5094652;28;20039;-46
2023/01/17 10:48:32;;;;;;;3.90;1.02;;;;;;;13.41;57.02;95607.44;5094595;28;20035;-47
2023/01/17 10:51:10;;;;;;;3.63;0.90;;;;;;;13.89;53.68;95579.81;5093437;28;20062;-46
2023/01/17 10:53:44;;;;;;;4.57;3.47;;;;;;;13.49;55.60;95625.19;5094524;28;20024;-46
2023/01/17 10:56:14;;;;;;;1.95;1.17;;;;;;;13.42;53.68;95611.63;5093129;28;20028;-47
2023/01/17 10:58:40;;;;;;;3.35;0.93;;;;;;;13.06;53.20;95595.69;5093136;28;20020;-46
2023/01/17 11:01:18;;;;;;;1.63;0.70;;;;;;;12.49;54.92;95595.91;5092991;28;20097;-46
2023/01/17 11:03:53;;;;;;;2.85;0.80;;;;;;;12.28;56.43;95638.31;5094593;28;20032;-46
2023/01/17 11:06:21;;;;;;;2.40;0.70;;;;;;;12.82;55.96;95630.88;5094226;28;20084;-47
2023/01/17 11:08:57;;;;;;;6.97;1.10;;;;;;;13.70;53.91;95627.41;5092856;28;20123;-47
2023/01/17 11:11:29;;;;;;;4.60;1.13;;;;;;;14.17;53.50;95628.75;5093862;28;20024;-46
2023/01/17 11:13:59;;;;;;;2.58;1.30;;;;;;;14.45;52.58;95602.25;5094151;28;20023;-47
2023/01/17 11:16:31;;;;;;;2.17;1.35;;;;;;;14.36;51.76;95639.13;5094010;28;20099;-44
2023/01/17 11:19:28;;;;;;;0.80;0.60;;;;;;;14.81;50.24;95634.94;5094063;28;20099;-44
2023/01/17 11:22:00;;;;;;;13.57;1.13;;;;;;;14.64;48.25;95625.06;5081379;28;20051;-44
2023/01/17 11:24:52;;;;;;;2.80;1.00;;;;;;;13.75;49.52;95670.25;5114080;27;20126;-44
2023/01/17 11:27:32;;;;;;;7.28;1.70;;;;;;;12.42;54.72;95638.38;5126241;27;20085;-44
2023/01/17 11:30:16;;;;;;;5.32;1.20;;;;;;;11.99;56.46;95638.44;5134714;27;20468;-46
2023/01/17 11:32:55;;;;;;;1.73;1.30;;;;;;;12.52;55.12;95658.47;5133298;27;20118;-46
2023/01/17 11:35:24;;;;;;;1.27;0.90;;;;;;;12.73;53.96;95628.13;5116146;27;20065;-47
2023/01/17 11:37:55;;;;;;;1.20;0.80;;;;;;;12.86;51.69;95623.16;5134507;27;20015;-47
2023/01/17 11:40:42;;;;;;;3.35;1.00;;;;;;;12.84;52.05;95626.09;5133141;27;20031;-47
2023/01/17 11:43:11;;;;;;;2.47;0.90;;;;;;;13.01;51.78;95624.75;5133047;27;20031;-47
2023/01/17 11:45:39;;;;;;;0.40;0.40;;;;;;;13.17;50.94;95650.50;5134267;27;20031;-47
2023/01/17 11:48:07;;;;;;;1.55;0.60;;;;;;;13.43;51.00;95641.38;5134277;27;20392;-47
2023/01/17 11:50:43;;;;;;;1.17;0.70;;;;;;;13.37;49.78;95635.44;5132908;27;20108;-47
2023/01/17 11:53:15;;;;;;;2.85;0.93;;;;;;;13.08;51.17;95628.56;5132829;27;20123;-47
2023/01/17 11:56:01;;;;;;;3.15;1.27;;;;;;;13.47;50.70;95631.81;5134176;27;20031;-47
2023/01/17 11:58:28;;;;;;;1.75;0.90;;;;;;;13.91;50.59;95635.66;5134156;27;20023;-47
2023/01/17 12:01:40;;;;;;;4.63;1.35;;;;;;;14.19;47.90;95625.81;5132717;27;20059;-47
2023/01/17 12:04:29;;;;;;;0.63;0.60;;;;;;;14.08;48.95;95638.44;5133901;27;20168;-47
2023/01/17 12:07:22;;;;;;;2.13;0.75;;;;;;;14.44;48.77;95634.22;5132633;27;20019;-47
2023/01/17 12:10:00;;;;;;;1.25;1.00;;;;;;;14.62;47.52;95643.06;5133863;27;20118;-47
2023/01/17 12:15:45;;;;;;;2.17;0.80;;;;;;;14.57;46.67;95647.38;5134089;27;20038;-45
2023/01/17 12:18:42;;;;;;;2.17;0.90;;;;;;;14.52;47.36;95636.91;5132374;27;20106;-44
2023/01/17 12:21:17;;;;;;;3.15;1.00;;;;;;;14.51;46.27;95622.16;5133720;27;20034;-44
2023/01/17 12:23:54;;;;;;;5.20;1.10;;;;;;;14.37;48.05;95626.72;5132144;27;20133;-45
2023/01/17 12:26:39;;;;;;;3.55;1.23;;;;;;;14.84;47.49;95629.06;5132306;27;20104;-44
2023/01/17 12:29:53;;;;;;;2.47;1.00;;;;;;;15.24;46.17;95629.88;5132314;27;20037;-45
2023/01/17 12:32:44;;;;;;;4.22;0.88;;;;;;;15.61;46.68;95627.00;5069718;28;20056;-45
2023/01/17 12:35:15;;;;;;;1.33;0.90;;;;;;;16.14;44.09;95616.22;5070010;28;20044;-45
2023/01/17 12:37:44;;;;;;;1.98;1.20;;;;;;;16.02;43.06;95620.56;5070018;28;20028;-45
2023/01/17 12:40:29;;;;;;;1.80;1.15;;;;;;;15.85;43.60;95608.88;5069938;28;20036;-44
2023/01/17 12:43:04;;;;;;;1.48;0.75;;;;;;;15.88;42.78;95599.56;5070004;28;20036;-44
2023/01/17 12:45:44;;;;;;;5.00;1.08;;;;;;;15.78;42.93;95595.34;5069932;28;20120;-44
2023/01/17 12:48:17;;;;;;;8.43;1.63;;;;;;;15.51;44.22;95602.44;5053257;28;20028;-45
2023/01/17 12:51:08;;;;;;;4.22;1.42;;;;;;;15.05;43.15;95602.91;5069824;28;20039;-45
2023/01/17 12:53:36;;;;;;;3.83;0.80;;;;;;;14.55;45.30;95599.38;5053058;28;20063;-44
2023/01/17 12:56:24;;;;;;;2.83;0.80;;;;;;;14.65;45.59;95585.19;5052839;28;20101;-44
2023/01/17 12:58:58;;;;;;;2.08;0.60;;;;;;;14.94;45.24;95584.69;5069791;28;20043;-44
2023/01/17 13:01:38;;;;;;;1.48;0.82;;;;;;;14.96;44.00;95573.81;5052851;28;20040;-44
2023/01/17 13:04:09;;;;;;;1.38;0.70;;;;;;;14.61;44.53;95564.94;5069679;28;20039;-44
2023/01/17 13:06:59;;;;;;;8.13;2.50;;;;;;;14.45;45.62;95565.31;5069678;28;20041;-44
2023/01/17 13:09:33;;;;;;;2.47;0.80;;;;;;;14.13;46.13;95579.53;5119917;27;20035;-44
2023/01/17 13:12:09;;;;;;;10.68;2.53;;;;;;;13.85;46.80;95566.44;5131845;27;20035;-45
2023/01/17 13:14:35;;;;;;;5.05;1.73;;;;;;;13.87;47.93;95568.81;5131566;27;20502;-44
2023/01/17 13:17:27;;;;;;;11.27;1.13;;;;;;;14.15;47.33;95554.44;5166184;27;20052;-45
2023/01/17 13:20:30;;;;;;;4.30;1.00;;;;;;;14.65;46.44;95550.06;5132909;27;20382;-45
2023/01/17 13:23:10;;;;;;;9.18;2.70;;;;;;;15.11;45.78;95533.81;5132519;27;20043;-45